createdAt,value
2023-05-16T00:01:30.346Z,2.75
2023-05-16T00:04:20.588Z,2.45
2023-05-16T00:07:10.728Z,3.00
2023-05-16T00:10:00.018Z,3.13
2023-05-16T00:12:51.926Z,3.63
2023-05-16T00:15:41.242Z,2.88
2023-05-16T00:18:30.887Z,2.80
2023-05-16T00:21:23.025Z,2.72
2023-05-16T00:24:12.876Z,2.75
2023-05-16T00:27:02.265Z,2.65
2023-05-16T00:29:52.977Z,2.30
2023-05-16T00:32:42.668Z,2.47
2023-05-16T00:35:32.004Z,2.38
2023-05-16T00:38:21.386Z,2.72
2023-05-16T00:41:10.571Z,3.00
2023-05-16T00:43:59.776Z,2.60
2023-05-16T00:46:51.283Z,2.70
2023-05-16T00:49:40.670Z,2.60
2023-05-16T00:52:31.038Z,2.58
2023-05-16T00:55:20.447Z,2.55
2023-05-16T00:58:13.439Z,3.17
2023-05-16T01:01:09.147Z,2.67
2023-05-16T01:04:01.064Z,2.80
2023-05-16T01:06:50.837Z,3.00
2023-05-16T01:09:40.375Z,3.40
2023-05-16T01:12:38.648Z,3.03
2023-05-16T01:15:34.032Z,2.72
2023-05-16T01:18:32.645Z,3.42
2023-05-16T01:21:43.679Z,3.58
2023-05-16T01:24:43.901Z,3.90
2023-05-16T01:27:35.040Z,3.40
2023-05-16T01:30:24.333Z,4.10
2023-05-16T01:33:13.798Z,3.50
2023-05-16T01:36:12.610Z,3.88
2023-05-16T01:39:16.209Z,4.32
2023-05-16T01:42:09.247Z,3.90
2023-05-16T01:48:01.450Z,3.90
2023-05-16T01:50:57.731Z,3.55
2023-05-16T01:53:47.307Z,3.63
2023-05-16T01:56:38.567Z,4.00
2023-05-16T01:59:28.498Z,3.60
2023-05-16T02:02:21.546Z,3.30
2023-05-16T02:05:11.070Z,3.22
2023-05-16T02:08:00.664Z,3.22
2023-05-16T02:10:50.081Z,3.13
2023-05-16T02:13:39.509Z,2.78
2023-05-16T02:16:31.623Z,2.63
2023-05-16T02:19:22.763Z,2.63
2023-05-16T02:22:12.073Z,2.72
2023-05-16T02:25:03.328Z,2.95
2023-05-16T02:27:52.647Z,2.85
2023-05-16T02:30:42.028Z,2.92
2023-05-16T02:33:33.361Z,2.50
2023-05-16T02:36:24.078Z,3.13
2023-05-16T02:39:13.400Z,2.88
2023-05-16T02:42:02.675Z,2.40
2023-05-16T02:44:51.996Z,3.03
2023-05-16T02:47:41.558Z,2.60
2023-05-16T02:50:30.920Z,2.90
2023-05-16T02:53:21.578Z,3.00
2023-05-16T02:56:10.912Z,2.80
2023-05-16T02:59:01.584Z,3.30
2023-05-16T03:01:51.021Z,2.90
2023-05-16T03:04:40.389Z,3.10
2023-05-16T03:07:29.802Z,2.95
2023-05-16T03:10:20.780Z,3.08
2023-05-16T03:13:10.156Z,3.65
2023-05-16T03:15:59.878Z,2.70
2023-05-16T03:18:49.198Z,3.05
2023-05-16T03:21:38.499Z,3.00
2023-05-16T03:24:28.937Z,3.03
2023-05-16T03:27:19.681Z,2.83
2023-05-16T03:30:10.927Z,3.15
2023-05-16T03:33:00.400Z,3.60
2023-05-16T03:35:49.994Z,3.10
2023-05-16T03:38:39.770Z,2.90
2023-05-16T03:41:29.484Z,3.20
2023-05-16T03:44:20.195Z,2.67
2023-05-16T03:47:09.878Z,2.75
2023-05-16T03:50:03.347Z,2.70
2023-05-16T03:52:53.993Z,2.85
2023-05-16T03:55:45.451Z,2.92
2023-05-16T03:58:38.281Z,2.97
2023-05-16T04:01:29.831Z,3.80
2023-05-16T04:04:19.130Z,5.43
2023-05-16T04:07:11.509Z,9.68
2023-05-16T04:10:01.370Z,12.52
2023-05-16T04:12:51.682Z,7.93
2023-05-16T04:15:41.140Z,5.43
2023-05-16T04:18:34.975Z,4.18
2023-05-16T04:21:24.534Z,3.67
2023-05-16T04:24:15.716Z,3.08
2023-05-16T04:27:09.154Z,3.00
2023-05-16T04:30:00.511Z,2.72
2023-05-16T04:32:49.933Z,2.53
2023-05-16T04:35:43.550Z,2.75
2023-05-16T04:38:35.116Z,2.80
2023-05-16T04:41:26.410Z,3.25
2023-05-16T04:44:18.795Z,2.80
2023-05-16T04:47:08.503Z,3.63
2023-05-16T04:50:01.024Z,3.00
2023-05-16T04:52:55.169Z,2.92
2023-05-16T04:55:46.473Z,3.30
2023-05-16T04:58:51.218Z,3.70
2023-05-16T05:01:43.760Z,3.30
2023-05-16T05:04:33.078Z,3.05
2023-05-16T05:07:28.585Z,2.92
2023-05-16T05:10:19.784Z,3.08
2023-05-16T05:13:09.160Z,2.72
2023-05-16T05:15:58.469Z,2.97
2023-05-16T05:18:47.873Z,3.00
2023-05-16T05:21:39.847Z,3.10
2023-05-16T05:24:29.286Z,3.17
2023-05-16T05:27:22.634Z,2.70
2023-05-16T05:30:13.064Z,3.03
2023-05-16T05:33:02.405Z,3.08
2023-05-16T05:35:54.303Z,3.15
2023-05-16T05:38:43.875Z,3.45
2023-05-16T05:41:37.950Z,3.17
2023-05-16T05:44:30.013Z,3.28
2023-05-16T05:47:19.432Z,3.60
2023-05-16T05:50:11.511Z,3.35
2023-05-16T05:53:00.886Z,3.80
2023-05-16T05:55:50.248Z,3.05
2023-05-16T05:58:42.037Z,2.95
2023-05-16T06:01:32.739Z,2.75
2023-05-16T06:04:22.328Z,3.25
2023-05-16T06:07:11.700Z,3.67
2023-05-16T06:10:05.264Z,2.88
2023-05-16T06:12:54.798Z,2.88
2023-05-16T06:15:44.514Z,3.45
2023-05-16T06:18:35.236Z,2.90
2023-05-16T06:21:24.874Z,3.45
2023-05-16T06:24:14.206Z,3.50
2023-05-16T06:27:03.541Z,3.67
2023-05-16T06:29:52.919Z,3.50
2023-05-16T06:32:42.228Z,3.30
2023-05-16T06:35:32.946Z,3.35
2023-05-16T06:38:22.373Z,3.60
2023-05-16T06:41:11.708Z,4.35
2023-05-16T06:44:01.071Z,3.30
2023-05-16T06:46:50.450Z,3.30
2023-05-16T06:49:39.813Z,3.33
2023-05-16T06:52:30.596Z,3.08
2023-05-16T06:55:20.230Z,3.28
2023-05-16T06:58:09.824Z,3.20
2023-05-16T07:00:59.212Z,3.38
2023-05-16T07:03:48.854Z,3.05
2023-05-16T07:06:38.252Z,3.17
2023-05-16T07:09:29.090Z,3.97
2023-05-16T07:12:18.645Z,3.42
2023-05-16T07:15:09.712Z,3.55
2023-05-16T07:17:59.180Z,3.30
2023-05-16T07:20:48.540Z,3.70
2023-05-16T07:23:37.817Z,3.88
2023-05-16T07:26:28.592Z,4.55
2023-05-16T07:29:17.895Z,4.03
2023-05-16T07:32:08.900Z,4.75
2023-05-16T07:34:58.369Z,4.97
2023-05-16T07:37:47.732Z,4.25
2023-05-16T07:40:37.557Z,4.80
2023-05-16T07:43:29.052Z,5.35
2023-05-16T07:46:19.741Z,5.00
2023-05-16T07:49:09.141Z,5.38
2023-05-16T07:51:58.450Z,6.00
2023-05-16T07:54:48.792Z,5.57
2023-05-16T07:57:38.301Z,5.90
2023-05-16T08:00:29.287Z,6.68
2023-05-16T08:03:18.843Z,6.88
2023-05-16T08:06:08.768Z,6.97
2023-05-16T08:08:58.212Z,7.97
2023-05-16T08:11:47.568Z,7.15
2023-05-16T08:14:37.200Z,7.35
2023-05-16T08:17:27.953Z,6.93
2023-05-16T08:20:17.430Z,7.30
2023-05-16T08:23:07.048Z,6.68
2023-05-16T08:25:56.284Z,6.43
2023-05-16T08:28:45.602Z,7.07
2023-05-16T08:31:34.914Z,6.80
2023-05-16T08:34:25.602Z,7.07
2023-05-16T08:37:17.197Z,6.88
2023-05-16T08:40:10.942Z,6.18
2023-05-16T08:43:00.320Z,7.40
2023-05-16T08:45:49.850Z,6.82
2023-05-16T08:48:43.642Z,6.43
2023-05-16T08:51:36.672Z,6.40
2023-05-16T08:57:18.863Z,5.93
2023-05-16T09:00:12.891Z,6.57
2023-05-16T09:03:02.668Z,6.60
2023-05-16T09:05:52.782Z,6.20
2023-05-16T09:08:43.739Z,6.05
2023-05-16T09:11:34.475Z,6.75
2023-05-16T09:14:24.799Z,7.20
2023-05-16T09:20:12.518Z,6.88
2023-05-16T09:23:03.421Z,6.25
2023-05-16T09:25:55.108Z,6.03
2023-05-16T09:28:45.155Z,6.40
2023-05-16T09:31:38.400Z,6.00
2023-05-16T09:34:28.151Z,5.85
2023-05-16T09:37:17.792Z,6.15
2023-05-16T09:40:11.619Z,6.55
2023-05-16T09:43:07.274Z,6.22
2023-05-16T09:46:00.641Z,6.40
2023-05-16T09:48:50.238Z,6.70
2023-05-16T09:51:39.556Z,6.03
2023-05-16T09:54:34.013Z,6.00
2023-05-16T09:57:23.738Z,6.10
2023-05-16T10:00:15.860Z,5.97
2023-05-16T10:03:06.352Z,6.30
2023-05-16T10:05:56.819Z,6.40
2023-05-16T10:08:46.979Z,6.45
2023-05-16T10:11:36.641Z,6.43
2023-05-16T10:14:27.553Z,6.20
2023-05-16T10:17:18.998Z,6.15
2023-05-16T10:20:11.415Z,6.03
2023-05-16T10:23:00.983Z,6.10
2023-05-16T10:25:51.389Z,6.32
2023-05-16T10:28:42.803Z,5.93
2023-05-16T10:31:32.988Z,5.75
2023-05-16T10:34:24.688Z,5.88
2023-05-16T10:37:13.998Z,5.97
2023-05-16T10:40:05.936Z,6.38
2023-05-16T10:42:59.033Z,6.73
2023-05-16T10:45:57.269Z,5.80
2023-05-16T10:48:48.480Z,5.93
2023-05-16T10:51:40.844Z,6.32
2023-05-16T10:54:37.201Z,6.45
2023-05-16T10:57:26.518Z,6.35
2023-05-16T11:00:24.157Z,5.53
2023-05-16T11:03:28.374Z,5.82
2023-05-16T11:06:24.908Z,6.30
2023-05-16T11:09:26.683Z,5.80
2023-05-16T11:12:16.248Z,5.60
2023-05-16T11:15:24.907Z,6.03
2023-05-16T11:18:19.016Z,6.10
2023-05-16T11:21:08.848Z,5.82
2023-05-16T11:24:33.026Z,5.88
2023-05-16T11:27:25.776Z,6.28
2023-05-16T11:30:17.805Z,6.13
2023-05-16T11:33:07.868Z,5.70
2023-05-16T11:36:16.006Z,5.60
2023-05-16T11:39:09.708Z,5.82
2023-05-16T11:42:01.682Z,5.63
2023-05-16T11:44:51.009Z,5.90
2023-05-16T11:47:41.404Z,5.80
2023-05-16T11:50:31.444Z,5.53
2023-05-16T11:53:22.379Z,6.05
2023-05-16T11:56:12.403Z,5.70
2023-05-16T11:59:03.560Z,5.85
2023-05-16T12:01:54.206Z,5.82
2023-05-16T12:04:47.975Z,5.90
2023-05-16T12:07:38.273Z,5.85
2023-05-16T12:10:27.877Z,6.32
2023-05-16T12:13:20.406Z,5.90
2023-05-16T12:16:12.951Z,5.53
2023-05-16T12:19:03.145Z,5.45
2023-05-16T12:21:55.555Z,6.05
2023-05-16T12:24:45.046Z,5.50
2023-05-16T12:27:35.269Z,5.20
2023-05-16T12:30:26.708Z,5.50
2023-05-16T12:33:18.142Z,5.50
2023-05-16T12:36:14.749Z,5.40
2023-05-16T12:39:04.947Z,5.28
2023-05-16T12:41:54.365Z,5.20
2023-05-16T12:44:47.126Z,4.93
2023-05-16T12:50:31.600Z,8.65
2023-05-16T12:53:21.203Z,5.10
2023-05-16T12:56:11.256Z,5.43
2023-05-16T12:59:00.617Z,5.20
2023-05-16T13:01:49.931Z,5.00
2023-05-16T13:04:39.276Z,4.85
2023-05-16T13:07:30.700Z,5.85
2023-05-16T13:10:20.481Z,5.70
2023-05-16T13:13:09.862Z,5.35
2023-05-16T13:15:59.239Z,5.25
2023-05-16T13:18:48.570Z,5.60
2023-05-16T13:21:37.941Z,5.25
2023-05-16T13:24:28.526Z,5.03
2023-05-16T13:27:19.027Z,4.75
2023-05-16T13:30:10.278Z,4.90
2023-05-16T13:32:59.957Z,4.72
2023-05-16T13:35:49.734Z,4.97
2023-05-16T13:38:42.388Z,5.00
2023-05-16T13:41:34.127Z,4.68
2023-05-16T13:44:23.785Z,5.25
2023-05-16T13:47:13.548Z,4.88
2023-05-16T13:50:08.352Z,4.78
2023-05-16T13:52:57.754Z,4.75
2023-05-16T13:55:47.865Z,4.07
2023-05-16T13:58:52.494Z,4.25
2023-05-16T14:01:50.865Z,4.32
2023-05-16T14:04:40.222Z,4.50
2023-05-16T14:07:29.498Z,4.63
2023-05-16T14:10:18.862Z,4.63
2023-05-16T14:13:08.276Z,4.72
2023-05-16T14:15:59.056Z,4.55
2023-05-16T14:18:48.848Z,4.35
2023-05-16T14:21:38.232Z,4.47
2023-05-16T14:24:27.514Z,3.85
2023-05-16T14:27:17.154Z,4.32
2023-05-16T14:30:08.344Z,4.20
2023-05-16T14:33:01.338Z,4.22
2023-05-16T14:35:52.238Z,4.60
2023-05-16T14:38:41.858Z,4.78
2023-05-16T14:41:31.187Z,4.30
2023-05-16T14:44:21.834Z,4.00
2023-05-16T14:47:11.597Z,4.63
2023-05-16T14:50:02.929Z,3.88
2023-05-16T14:52:53.172Z,4.13
2023-05-16T14:55:42.580Z,4.25
2023-05-16T14:58:32.358Z,3.83
2023-05-16T15:01:22.772Z,3.80
2023-05-16T15:04:12.205Z,3.80
2023-05-16T15:07:03.022Z,4.18
2023-05-16T15:09:52.521Z,3.88
2023-05-16T15:12:47.413Z,3.67
2023-05-16T15:15:38.744Z,3.90
2023-05-16T15:18:28.137Z,3.42
2023-05-16T15:21:17.449Z,3.38
2023-05-16T15:24:09.923Z,3.33
2023-05-16T15:26:59.287Z,3.80
2023-05-16T15:29:48.639Z,3.60
2023-05-16T15:32:38.053Z,3.72
2023-05-16T15:35:27.714Z,3.60
2023-05-16T15:38:17.097Z,4.10
2023-05-16T15:41:22.424Z,3.97
2023-05-16T15:44:18.682Z,3.58
2023-05-16T15:47:08.883Z,3.03
2023-05-16T15:49:58.299Z,3.67
2023-05-16T15:52:47.613Z,3.88
2023-05-16T15:55:37.520Z,4.10
2023-05-16T15:58:28.240Z,3.97
2023-05-16T16:01:17.923Z,3.67
2023-05-16T16:04:08.456Z,3.70
2023-05-16T16:06:57.847Z,3.47
2023-05-16T16:09:47.119Z,3.63
2023-05-16T16:12:37.245Z,3.53
2023-05-16T16:15:30.186Z,3.45
2023-05-16T16:18:21.508Z,3.65
2023-05-16T16:21:11.297Z,3.45
2023-05-16T16:24:00.671Z,3.47
2023-05-16T16:26:49.950Z,3.47
2023-05-16T16:29:39.271Z,3.72
2023-05-16T16:32:30.144Z,3.45
2023-05-16T16:35:19.639Z,3.03
2023-05-16T16:38:12.021Z,3.65
2023-05-16T16:41:01.587Z,3.33
2023-05-16T16:43:53.662Z,3.65
2023-05-16T16:46:50.471Z,3.40
2023-05-16T16:49:41.540Z,3.45
2023-05-16T16:52:34.998Z,3.55
2023-05-16T16:55:27.529Z,3.22
2023-05-16T16:58:18.618Z,2.95
2023-05-16T17:01:10.347Z,3.63
2023-05-16T17:04:06.793Z,3.27
2023-05-16T17:06:57.777Z,3.15
2023-05-16T17:09:49.891Z,3.35
2023-05-16T17:12:49.142Z,4.27
2023-05-16T17:15:41.083Z,3.67
2023-05-16T17:18:34.680Z,4.07
2023-05-16T17:21:24.293Z,3.10
2023-05-16T17:24:15.172Z,3.53
2023-05-16T17:27:07.748Z,3.17
2023-05-16T17:29:57.414Z,3.40
2023-05-16T17:32:49.692Z,3.38
2023-05-16T17:35:39.582Z,3.55
2023-05-16T17:38:29.132Z,4.07
2023-05-16T17:41:20.679Z,3.58
2023-05-16T17:44:12.725Z,3.72
2023-05-16T17:47:05.685Z,3.90
2023-05-16T17:49:55.495Z,3.90
2023-05-16T17:52:44.879Z,3.50
2023-05-16T17:55:36.759Z,3.53
2023-05-16T17:58:29.534Z,3.67
2023-05-16T18:01:20.952Z,3.53
2023-05-16T18:04:14.605Z,4.00
2023-05-16T18:07:07.028Z,3.50
2023-05-16T18:09:59.147Z,3.38
2023-05-16T18:12:49.874Z,3.70
2023-05-16T18:15:40.881Z,3.63
2023-05-16T18:18:30.359Z,3.92
2023-05-16T18:21:19.692Z,3.45
2023-05-16T18:24:11.688Z,4.20
2023-05-16T18:27:01.723Z,3.67
2023-05-16T18:29:53.456Z,4.35
2023-05-16T18:32:44.364Z,3.63
2023-05-16T18:35:33.628Z,4.22
2023-05-16T18:38:32.074Z,3.33
2023-05-16T18:41:22.742Z,3.70
2023-05-16T18:44:12.028Z,3.45
2023-05-16T18:47:01.379Z,4.28
2023-05-16T18:49:52.717Z,3.90
2023-05-16T18:52:42.183Z,4.75
2023-05-16T18:55:31.869Z,3.78
2023-05-16T18:58:21.394Z,3.92
2023-05-16T19:01:10.688Z,4.05
2023-05-16T19:04:00.595Z,4.55
2023-05-16T19:06:55.195Z,4.35
2023-05-16T19:09:46.966Z,4.28
2023-05-16T19:12:36.552Z,4.65
2023-05-16T19:15:26.293Z,4.72
2023-05-16T19:18:17.817Z,4.13
2023-05-16T19:21:08.110Z,4.05
2023-05-16T19:23:58.753Z,4.40
2023-05-16T19:26:48.108Z,4.15
2023-05-16T19:29:37.473Z,4.70
2023-05-16T19:32:26.899Z,4.60
2023-05-16T19:35:16.292Z,4.15
2023-05-16T19:38:05.744Z,4.30
2023-05-16T19:40:56.553Z,4.43
2023-05-16T19:43:46.068Z,4.22
2023-05-16T19:46:35.373Z,4.40
2023-05-16T19:49:26.153Z,4.97
2023-05-16T19:52:15.932Z,4.85
2023-05-16T19:55:07.858Z,5.35
2023-05-16T19:57:58.660Z,5.78
2023-05-16T20:00:48.225Z,5.32
2023-05-16T20:03:37.804Z,5.22
2023-05-16T20:06:28.980Z,5.57
2023-05-16T20:09:23.038Z,5.43
2023-05-16T20:12:12.945Z,5.60
2023-05-16T20:15:08.947Z,5.85
2023-05-16T20:18:17.629Z,5.60
2023-05-16T20:21:08.634Z,5.20
2023-05-16T20:23:58.020Z,5.35
2023-05-16T20:26:47.372Z,5.70
2023-05-16T20:29:36.864Z,5.78
2023-05-16T20:32:29.213Z,6.20
2023-05-16T20:35:18.751Z,6.30
2023-05-16T20:38:08.067Z,5.75
2023-05-16T20:40:57.423Z,6.70
2023-05-16T20:43:47.564Z,6.53
2023-05-16T20:46:37.094Z,6.47
2023-05-16T20:49:27.953Z,6.47
2023-05-16T20:52:17.236Z,6.53
2023-05-16T20:55:08.049Z,6.68
2023-05-16T20:57:57.441Z,6.07
2023-05-16T21:00:46.820Z,8.82
2023-05-16T21:03:36.241Z,6.38
2023-05-16T21:06:27.147Z,6.38
2023-05-16T21:09:16.492Z,6.53
2023-05-16T21:12:07.046Z,6.82
2023-05-16T21:14:56.426Z,7.15
2023-05-16T21:17:45.946Z,7.32
2023-05-16T21:20:35.486Z,7.30
2023-05-16T21:23:26.429Z,7.80
2023-05-16T21:26:16.477Z,7.47
2023-05-16T21:29:05.807Z,7.50
2023-05-16T21:31:55.179Z,7.55
2023-05-16T21:34:44.427Z,6.97
2023-05-16T21:37:33.862Z,7.35
2023-05-16T21:40:26.080Z,7.63
2023-05-16T21:43:15.741Z,7.63
2023-05-16T21:46:05.524Z,7.88
2023-05-16T21:48:54.875Z,8.75
2023-05-16T21:51:45.257Z,9.20
2023-05-16T21:54:34.734Z,9.60
2023-05-16T21:57:25.557Z,10.07
2023-05-16T22:00:16.845Z,9.77
2023-05-16T22:03:06.168Z,10.07
2023-05-16T22:05:55.501Z,9.73
2023-05-16T22:08:44.799Z,9.95
2023-05-16T22:11:34.180Z,11.07
2023-05-16T22:14:25.281Z,9.70
2023-05-16T22:17:14.771Z,8.98
2023-05-16T22:20:04.480Z,9.07
2023-05-16T22:22:53.912Z,8.75
2023-05-16T22:25:43.161Z,9.32
2023-05-16T22:28:32.499Z,9.45
2023-05-16T22:31:23.267Z,9.77
2023-05-16T22:34:12.558Z,9.77
2023-05-16T22:37:01.962Z,9.52
2023-05-16T22:39:51.550Z,10.43
2023-05-16T22:42:41.168Z,11.05
2023-05-16T22:45:30.632Z,11.02
2023-05-16T22:48:21.360Z,10.95
2023-05-16T22:51:10.672Z,10.68
2023-05-16T22:53:59.971Z,10.52
2023-05-16T22:56:49.312Z,11.30
2023-05-16T22:59:38.690Z,12.07
2023-05-16T23:02:28.110Z,10.25
2023-05-16T23:05:19.199Z,9.82
2023-05-16T23:08:08.572Z,10.95
2023-05-16T23:10:57.834Z,10.48
2023-05-16T23:13:47.214Z,10.10
2023-05-16T23:16:36.568Z,9.35
2023-05-16T23:19:26.290Z,10.77
2023-05-16T23:22:17.191Z,10.77
2023-05-16T23:25:07.815Z,12.15
2023-05-16T23:27:58.077Z,18.95
2023-05-16T23:30:47.373Z,24.30
2023-05-16T23:33:36.616Z,24.60
2023-05-16T23:36:26.158Z,24.77
2023-05-16T23:39:17.441Z,23.83
2023-05-16T23:42:07.369Z,23.20
2023-05-16T23:44:56.732Z,21.23
2023-05-16T23:47:46.130Z,21.63
2023-05-16T23:50:35.559Z,21.92
2023-05-16T23:53:29.139Z,21.30
2023-05-16T23:56:19.769Z,21.08
2023-05-16T23:59:09.363Z,20.35
